Time;durP1;ratioP1;P1;durP2;ratioP2;P2;SDS_P1;SDS_P2;PMS_P1;PMS_P2;Temp;Humidity;BMP_temperature;BMP_pressure;BME280_temperature;BME280_humidity;BME280_pressure;Samples;Min_cycle;Max_cycle;Signal;HPM_P1;HPM_P2
2021/04/03 04:02:02;;;;;;;12.82;7.18;;;3.30;99.90;;;;;;5178631;23;20242;-71
2021/04/03 04:04:28;;;;;;;11.80;4.82;;;3.30;99.90;;;;;;4900561;29;20275;-71
2021/04/03 04:06:54;;;;;;;11.93;5.53;;;3.30;99.90;;;;;;4899848;29;20218;-70
2021/04/03 04:09:21;;;;;;;24.90;6.20;;;3.30;99.90;;;;;;4901013;29;20211;-71
2021/04/03 04:11:47;;;;;;;15.82;6.85;;;3.20;99.90;;;;;;4900630;29;20235;-71
2021/04/03 04:14:13;;;;;;;13.02;6.00;;;3.20;99.90;;;;;;4890851;29;20203;-69
2021/04/03 04:16:40;;;;;;;16.50;7.00;;;3.20;99.90;;;;;;4882185;29;20211;-72
2021/04/03 04:19:07;;;;;;;15.80;6.45;;;3.20;99.90;;;;;;4891402;29;20199;-71
2021/04/03 04:21:33;;;;;;;14.70;6.05;;;3.20;99.90;;;;;;4899033;29;20259;-69
2021/04/03 04:23:59;;;;;;;13.88;5.10;;;3.20;99.90;;;;;;4893197;29;20224;-69
2021/04/03 04:26:25;;;;;;;16.63;7.28;;;3.20;99.90;;;;;;4890790;29;20274;-69
2021/04/03 04:28:51;;;;;;;14.52;6.03;;;3.10;99.90;;;;;;4894621;29;20336;-70
2021/04/03 04:31:18;;;;;;;12.73;7.10;;;3.10;99.90;;;;;;4889364;29;20648;-69
2021/04/03 04:33:44;;;;;;;17.58;6.47;;;3.10;99.90;;;;;;4898369;29;20263;-69
2021/04/03 04:36:11;;;;;;;11.68;5.32;;;3.10;99.90;;;;;;4899612;29;20218;-69
2021/04/03 04:38:37;;;;;;;13.52;5.63;;;3.10;99.90;;;;;;4897649;29;20207;-69
2021/04/03 04:41:04;;;;;;;7.20;5.22;;;3.10;99.90;;;;;;4886198;29;20227;-69
2021/04/03 04:43:30;;;;;;;19.23;6.20;;;3.10;99.90;;;;;;4898409;29;20709;-69
2021/04/03 04:45:56;;;;;;;15.52;5.50;;;3.10;99.90;;;;;;4884593;29;20235;-70
2021/04/03 04:48:22;;;;;;;12.32;5.50;;;3.10;99.90;;;;;;4900076;29;20207;-71
2021/04/03 04:50:48;;;;;;;10.85;6.55;;;3.10;99.90;;;;;;4890278;29;20238;-71
2021/04/03 04:53:16;;;;;;;10.68;5.90;;;3.00;99.90;;;;;;4899880;29;20274;-71
2021/04/03 04:55:42;;;;;;;14.35;6.30;;;3.00;99.90;;;;;;4885780;29;20212;-71
2021/04/03 04:58:08;;;;;;;10.15;5.22;;;3.00;99.90;;;;;;4880517;29;20208;-71
2021/04/03 05:00:34;;;;;;;19.75;6.07;;;3.00;99.90;;;;;;4889388;29;20239;-69
2021/04/03 05:03:01;;;;;;;16.50;6.32;;;3.00;99.90;;;;;;4880620;29;20211;-69
2021/04/03 05:05:27;;;;;;;18.42;5.70;;;3.00;99.90;;;;;;4886688;29;20524;-69
2021/04/03 05:07:53;;;;;;;19.88;7.20;;;3.10;99.90;;;;;;4899283;29;20219;-69
2021/04/03 05:10:20;;;;;;;11.40;5.15;;;3.10;99.90;;;;;;4899273;29;20219;-71
2021/04/03 05:12:47;;;;;;;11.65;5.00;;;3.10;99.90;;;;;;4886203;29;20235;-71
2021/04/03 05:15:13;;;;;;;15.20;8.55;;;3.10;99.90;;;;;;4883309;29;20212;-71
2021/04/03 05:17:39;;;;;;;15.25;6.70;;;3.20;99.90;;;;;;4887961;29;20263;-69
2021/04/03 05:20:07;;;;;;;13.48;5.60;;;3.10;99.90;;;;;;4889857;29;20204;-69
2021/04/03 05:22:33;;;;;;;21.90;6.88;;;3.20;99.90;;;;;;4884955;29;20207;-69
2021/04/03 05:24:59;;;;;;;10.13;5.55;;;3.20;99.90;;;;;;4898132;29;20227;-69
2021/04/03 05:27:27;;;;;;;12.18;4.75;;;3.30;99.90;;;;;;4895438;29;20623;-69
2021/04/03 05:29:53;;;;;;;13.55;7.32;;;3.50;99.90;;;;;;4888005;29;20578;-70
2021/04/03 05:32:19;;;;;;;10.02;5.28;;;3.60;99.90;;;;;;4889581;29;20950;-70
2021/04/03 05:34:46;;;;;;;16.65;5.07;;;3.70;99.90;;;;;;4893754;29;20230;-70
2021/04/03 05:37:12;;;;;;;6.70;4.45;;;4.00;99.90;;;;;;4880555;29;20299;-71
2021/04/03 05:39:38;;;;;;;7.30;4.50;;;4.30;99.90;;;;;;4895179;29;20618;-71
2021/04/03 05:42:06;;;;;;;5.78;4.00;;;4.60;99.90;;;;;;4879534;29;20227;-71
2021/04/03 05:44:36;;;;;;;14.15;4.38;;;4.70;99.90;;;;;;4895358;29;20274;-71
2021/04/03 05:47:02;;;;;;;8.98;4.25;;;4.60;99.90;;;;;;4898919;29;20218;-71
2021/04/03 05:49:29;;;;;;;4.43;3.75;;;4.50;99.90;;;;;;4884051;29;20622;-71
2021/04/03 05:51:55;;;;;;;9.30;4.47;;;4.40;99.90;;;;;;4890021;29;20224;-69
2021/04/03 05:54:22;;;;;;;5.20;4.70;;;4.30;99.90;;;;;;4882824;29;20208;-69
2021/04/03 05:56:48;;;;;;;9.35;4.60;;;4.20;99.90;;;;;;4879781;29;20268;-69
2021/04/03 05:59:14;;;;;;;10.10;4.68;;;4.20;99.90;;;;;;4883216;29;20280;-69
2021/04/03 06:01:41;;;;;;;12.55;5.75;;;4.20;99.90;;;;;;4879849;29;20243;-69
2021/04/03 06:04:08;;;;;;;8.63;4.93;;;4.20;99.90;;;;;;4883101;29;20224;-71
2021/04/03 06:06:35;;;;;;;11.48;5.15;;;4.20;99.90;;;;;;4880195;29;20207;-70
2021/04/03 06:09:01;;;;;;;9.25;5.20;;;4.20;99.90;;;;;;4887689;29;20219;-70
2021/04/03 06:11:27;;;;;;;12.18;4.70;;;4.20;99.90;;;;;;4879667;29;20778;-70
2021/04/03 06:14:07;;;;;;;8.77;5.15;;;4.20;99.90;;;;;;4888555;29;20215;-71
2021/04/03 06:16:35;;;;;;;7.80;5.10;;;4.20;99.90;;;;;;4898771;29;20218;-69
2021/04/03 06:19:10;;;;;;;8.18;4.90;;;4.20;99.90;;;;;;4888731;29;20209;-70
2021/04/03 06:21:37;;;;;;;7.88;4.32;;;4.20;99.90;;;;;;4884256;29;20235;-71
2021/04/03 06:24:14;;;;;;;5.47;4.40;;;4.30;99.90;;;;;;4889550;29;20231;-71
2021/04/03 06:26:40;;;;;;;8.60;4.65;;;4.30;99.90;;;;;;4898558;29;20210;-70
2021/04/03 06:29:21;;;;;;;10.20;5.10;;;4.40;99.90;;;;;;4896780;29;20219;-71
2021/04/03 06:31:52;;;;;;;7.97;5.82;;;4.40;99.90;;;;;;4892257;29;20583;-71
2021/04/03 06:34:30;;;;;;;8.45;4.70;;;4.40;99.90;;;;;;4882310;29;20204;-69
2021/04/03 06:36:57;;;;;;;6.25;4.65;;;4.40;99.90;;;;;;4879903;29;20212;-69
2021/04/03 06:39:24;;;;;;;13.60;5.95;;;4.50;99.90;;;;;;4882545;29;20264;-69
2021/04/03 06:41:50;;;;;;;6.22;4.13;;;4.50;99.90;;;;;;4879168;29;20755;-69
2021/04/03 06:44:17;;;;;;;7.03;4.70;;;4.60;99.90;;;;;;4889280;29;20668;-69
2021/04/03 06:46:45;;;;;;;6.22;4.43;;;4.70;99.90;;;;;;4897870;29;20289;-69
2021/04/03 06:49:12;;;;;;;11.90;4.90;;;4.70;99.90;;;;;;4897640;29;20263;-69
2021/04/03 06:51:40;;;;;;;8.27;4.10;;;4.70;99.90;;;;;;4893378;29;20227;-69
2021/04/03 06:54:08;;;;;;;8.35;5.25;;;4.80;99.90;;;;;;4880427;29;20264;-70
2021/04/03 06:56:36;;;;;;;8.98;4.60;;;4.90;99.90;;;;;;4882608;29;20304;-70
2021/04/03 06:59:05;;;;;;;4.93;4.10;;;4.90;99.90;;;;;;4888291;29;20568;-70
2021/04/03 07:01:41;;;;;;;7.93;5.28;;;4.90;99.90;;;;;;4881785;29;20235;-70
2021/04/03 07:04:15;;;;;;;8.50;4.65;;;5.00;99.90;;;;;;4888593;29;20562;-71
2021/04/03 07:06:44;;;;;;;8.18;4.45;;;5.10;99.90;;;;;;4880083;29;20211;-69
2021/04/03 07:09:12;;;;;;;7.05;4.13;;;5.10;99.90;;;;;;4889863;29;20215;-68
2021/04/03 07:11:39;;;;;;;8.43;4.53;;;5.20;99.90;;;;;;4888786;29;20332;-70
2021/04/03 07:14:07;;;;;;;7.97;3.78;;;5.30;99.90;;;;;;4880274;29;20223;-70
2021/04/03 07:16:34;;;;;;;7.70;4.45;;;5.50;99.90;;;;;;4882808;29;20654;-69
2021/04/03 07:19:05;;;;;;;5.82;3.83;;;5.60;99.90;;;;;;4879735;29;20214;-70
2021/04/03 07:21:31;;;;;;;6.88;5.13;;;5.70;99.90;;;;;;4878649;29;20236;-70
2021/04/03 07:23:59;;;;;;;7.05;3.17;;;5.70;99.90;;;;;;4879006;29;20243;-70
2021/04/03 07:26:26;;;;;;;3.72;3.42;;;5.80;99.90;;;;;;4880135;29;20699;-69
2021/04/03 07:28:52;;;;;;;6.75;5.20;;;5.80;99.90;;;;;;4888077;29;20556;-69
2021/04/03 07:31:37;;;;;;;6.13;3.47;;;5.90;99.90;;;;;;4895104;29;20239;-71
2021/04/03 07:34:03;;;;;;;4.30;3.90;;;5.90;99.90;;;;;;4888677;29;20211;-69
2021/04/03 07:36:35;;;;;;;3.03;2.80;;;6.10;99.90;;;;;;4896862;29;20322;-68
2021/04/03 07:39:05;;;;;;;5.57;3.30;;;6.10;99.90;;;;;;4887512;29;20251;-68
2021/04/03 07:41:37;;;;;;;7.90;3.83;;;6.20;99.90;;;;;;4881730;29;20234;-68
2021/04/03 07:44:14;;;;;;;3.70;2.80;;;6.30;99.90;;;;;;4877780;29;20258;-68
2021/04/03 07:46:45;;;;;;;3.25;2.95;;;6.40;99.90;;;;;;4893994;29;20203;-69
2021/04/03 07:49:30;;;;;;;3.63;3.25;;;6.40;99.90;;;;;;4897691;29;20218;-70
2021/04/03 07:51:56;;;;;;;3.60;2.90;;;6.50;99.90;;;;;;4879861;29;20235;-69
2021/04/03 07:54:33;;;;;;;3.00;2.83;;;6.60;99.90;;;;;;4878750;29;20668;-67
2021/04/03 07:57:07;;;;;;;6.25;2.80;;;6.60;99.90;;;;;;4892034;29;20266;-68
2021/04/03 07:59:51;;;;;;;4.90;2.83;;;6.70;99.90;;;;;;4870950;29;20207;-69
2021/04/03 08:02:25;;;;;;;2.65;2.45;;;6.90;99.90;;;;;;4889809;29;20239;-69
2021/04/03 08:04:52;;;;;;;3.53;2.55;;;6.90;99.90;;;;;;4889051;29;20253;-70
2021/04/03 08:07:20;;;;;;;2.97;2.10;;;7.00;99.90;;;;;;4889670;29;20215;-70
2021/04/03 08:09:48;;;;;;;3.00;2.80;;;7.10;99.90;;;;;;4893563;29;20282;-70
2021/04/03 08:12:15;;;;;;;5.53;2.70;;;7.20;99.90;;;;;;4892321;29;20238;-69
2021/04/03 08:14:43;;;;;;;2.92;2.15;;;7.20;99.90;;;;;;4889483;29;20645;-69
2021/04/03 08:17:18;;;;;;;2.67;2.45;;;7.30;99.90;;;;;;4884351;29;20208;-70
2021/04/03 08:19:44;;;;;;;3.15;1.98;;;7.40;99.90;;;;;;4876537;29;20216;-71
2021/04/03 08:22:11;;;;;;;2.00;1.90;;;7.50;99.90;;;;;;4877307;29;20383;-71
2021/04/03 08:24:37;;;;;;;3.67;2.10;;;7.60;99.90;;;;;;4866461;29;20685;-71
2021/04/03 08:27:06;;;;;;;2.00;1.90;;;7.70;99.90;;;;;;4871424;29;20664;-71
2021/04/03 08:29:34;;;;;;;3.85;2.22;;;7.80;99.90;;;;;;4880569;29;20216;-71
2021/04/03 08:32:02;;;;;;;4.05;2.20;;;7.90;99.90;;;;;;4878129;29;20232;-71
2021/04/03 08:34:28;;;;;;;2.05;1.90;;;8.00;99.90;;;;;;4888141;29;20202;-70
2021/04/03 08:36:55;;;;;;;2.30;2.10;;;8.00;99.90;;;;;;4896713;29;20211;-70
2021/04/03 08:39:23;;;;;;;3.72;2.33;;;8.10;99.90;;;;;;4892987;29;20568;-70
2021/04/03 08:41:51;;;;;;;3.42;1.60;;;8.10;99.90;;;;;;4877512;29;20260;-71
2021/04/03 08:44:21;;;;;;;2.05;1.92;;;8.20;99.90;;;;;;4888063;29;20239;-71
2021/04/03 08:46:49;;;;;;;2.25;2.08;;;8.30;99.90;;;;;;4895037;29;20222;-71
2021/04/03 08:49:22;;;;;;;1.25;1.25;;;8.40;99.90;;;;;;4898217;29;20236;-71
2021/04/03 08:51:50;;;;;;;1.85;1.42;;;8.60;99.90;;;;;;4898338;29;20223;-71
2021/04/03 08:54:16;;;;;;;3.70;1.20;;;8.60;99.90;;;;;;4889587;29;20215;-69
2021/04/03 08:56:42;;;;;;;2.67;1.40;;;8.70;99.90;;;;;;4889813;29;20203;-71
2021/04/03 08:59:12;;;;;;;1.27;1.27;;;8.80;99.90;;;;;;4896841;29;20207;-71
2021/04/03 09:01:42;;;;;;;1.17;1.08;;;8.90;99.90;;;;;;4883601;29;20232;-71
2021/04/03 09:04:09;;;;;;;0.90;0.57;;;8.90;99.90;;;;;;4877058;29;20239;-71
2021/04/03 09:06:45;;;;;;;1.20;0.80;;;9.00;99.60;;;;;;4880736;29;20230;-72
2021/04/03 09:09:16;;;;;;;1.77;0.90;;;9.10;98.30;;;;;;4884338;29;20211;-70
2021/04/03 09:11:53;;;;;;;0.65;0.65;;;9.20;97.00;;;;;;4884340;29;20373;-71
2021/04/03 09:14:27;;;;;;;0.70;0.70;;;9.30;95.60;;;;;;4900018;29;20254;-70
2021/04/03 09:16:55;;;;;;;0.70;0.70;;;9.30;95.40;;;;;;4867435;29;20204;-71
2021/04/03 09:19:29;;;;;;;1.00;0.75;;;9.30;94.80;;;;;;4892412;29;20234;-71
2021/04/03 09:21:56;;;;;;;1.00;0.60;;;9.50;95.40;;;;;;4882038;29;20232;-70
2021/04/03 09:24:33;;;;;;;0.90;0.60;;;9.60;93.80;;;;;;4888098;29;20231;-74
2021/04/03 09:27:11;;;;;;;2.58;1.13;;;9.60;93.50;;;;;;4905366;29;20270;-72
2021/04/03 09:29:38;;;;;;;0.40;0.40;;;9.70;92.80;;;;;;4908734;29;20237;-72
2021/04/03 09:32:07;;;;;;;0.82;0.50;;;9.70;92.60;;;;;;4907672;29;20237;-72
2021/04/03 09:34:34;;;;;;;0.43;0.43;;;9.70;91.80;;;;;;4897625;29;20196;-72
2021/04/03 09:37:12;;;;;;;1.35;0.77;;;9.80;91.60;;;;;;4892016;29;20223;-72
2021/04/03 09:39:47;;;;;;;0.85;0.70;;;9.80;91.90;;;;;;4893236;29;20244;-72
2021/04/03 09:42:16;;;;;;;1.25;0.80;;;9.90;92.20;;;;;;4893235;29;20231;-73
2021/04/03 09:44:42;;;;;;;0.93;0.90;;;10.00;91.30;;;;;;4894878;29;20314;-74
2021/04/03 09:47:10;;;;;;;0.60;0.60;;;10.10;91.00;;;;;;4892162;29;20216;-73
2021/04/03 09:49:37;;;;;;;0.90;0.70;;;10.00;89.70;;;;;;4890270;29;20228;-73
2021/04/03 09:52:04;;;;;;;0.80;0.80;;;10.10;90.70;;;;;;4887665;29;20228;-72
2021/04/03 09:54:31;;;;;;;0.90;0.90;;;10.20;90.70;;;;;;4885852;29;20204;-72
2021/04/03 09:56:57;;;;;;;1.48;0.93;;;10.20;90.60;;;;;;4884576;29;20213;-72
2021/04/03 09:59:23;;;;;;;0.70;0.70;;;10.20;89.30;;;;;;4881592;29;20260;-73
2021/04/03 10:01:50;;;;;;;2.00;0.70;;;10.20;88.80;;;;;;4881404;29;20311;-72
2021/04/03 10:04:17;;;;;;;0.60;0.50;;;10.10;87.40;;;;;;4880098;29;20232;-72
2021/04/03 10:06:43;;;;;;;0.70;0.70;;;10.10;88.60;;;;;;4880366;29;20538;-70
2021/04/03 10:09:09;;;;;;;0.95;0.90;;;10.10;88.40;;;;;;4880161;29;20212;-72
2021/04/03 10:11:36;;;;;;;0.85;0.85;;;10.20;89.10;;;;;;4879985;29;20677;-72
2021/04/03 10:14:02;;;;;;;1.13;0.93;;;10.30;88.50;;;;;;4879356;29;20298;-72
2021/04/03 10:16:29;;;;;;;1.02;1.02;;;10.40;90.10;;;;;;4879960;29;20250;-72
2021/04/03 10:18:55;;;;;;;0.90;0.90;;;10.50;89.70;;;;;;4891526;29;20215;-71
2021/04/03 10:21:23;;;;;;;0.85;0.80;;;10.50;88.90;;;;;;4881945;29;20314;-70
2021/04/03 10:23:50;;;;;;;0.70;0.70;;;10.60;88.00;;;;;;4882497;29;20212;-72
2021/04/03 10:26:16;;;;;;;1.10;1.10;;;10.60;87.60;;;;;;4883048;29;20219;-72
2021/04/03 10:28:42;;;;;;;0.93;0.60;;;10.80;86.30;;;;;;4886440;29;20208;-72
2021/04/03 10:31:08;;;;;;;0.60;0.60;;;10.80;87.10;;;;;;4892509;29;20238;-72
2021/04/03 10:33:36;;;;;;;1.40;1.40;;;10.90;86.80;;;;;;4887681;29;20234;-72
2021/04/03 10:36:02;;;;;;;0.85;0.82;;;11.00;87.50;;;;;;4889757;29;20687;-73
2021/04/03 10:38:29;;;;;;;2.78;2.67;;;11.00;86.70;;;;;;4899433;29;20215;-72
2021/04/03 10:40:55;;;;;;;0.93;0.93;;;11.00;85.40;;;;;;4899345;29;20231;-72
2021/04/03 10:43:22;;;;;;;1.23;0.93;;;11.00;86.60;;;;;;4898389;29;20222;-72
2021/04/03 10:45:48;;;;;;;1.38;1.27;;;11.10;86.10;;;;;;4879053;29;20651;-71
2021/04/03 10:48:15;;;;;;;0.85;0.85;;;11.20;86.00;;;;;;4879513;29;20220;-71
2021/04/03 10:50:41;;;;;;;2.10;1.13;;;11.20;82.80;;;;;;4878763;29;20239;-71
2021/04/03 10:53:07;;;;;;;0.98;0.98;;;11.20;84.20;;;;;;4879382;29;20212;-71
2021/04/03 10:55:35;;;;;;;1.08;1.08;;;11.20;83.30;;;;;;4879171;29;20204;-71
2021/04/03 10:58:01;;;;;;;0.90;0.90;;;11.20;84.40;;;;;;4879011;29;20208;-71
2021/04/03 11:00:28;;;;;;;1.00;1.00;;;11.10;82.70;;;;;;4879279;29;20216;-71
2021/04/03 11:02:55;;;;;;;1.40;0.80;;;11.20;83.60;;;;;;4878749;29;20211;-71
2021/04/03 11:05:21;;;;;;;1.10;1.10;;;11.30;83.60;;;;;;4878319;29;20235;-70
2021/04/03 11:07:48;;;;;;;2.05;1.05;;;11.30;82.70;;;;;;4879157;29;20216;-70
2021/04/03 11:10:14;;;;;;;1.80;0.90;;;11.30;81.70;;;;;;4879237;29;20212;-70
2021/04/03 11:12:41;;;;;;;1.20;1.10;;;11.30;83.40;;;;;;4878442;29;20275;-70
2021/04/03 11:15:09;;;;;;;1.05;1.05;;;11.30;84.60;;;;;;4879876;29;20212;-73
2021/04/03 11:17:35;;;;;;;1.48;1.30;;;11.40;84.70;;;;;;4879718;29;20223;-71
2021/04/03 11:20:03;;;;;;;0.80;0.80;;;11.60;84.20;;;;;;4879450;29;20211;-71
2021/04/03 11:22:29;;;;;;;1.48;0.90;;;11.70;82.50;;;;;;4877836;29;20236;-70
2021/04/03 11:24:56;;;;;;;1.23;0.95;;;11.70;79.10;;;;;;4879346;29;20263;-71
2021/04/03 11:27:22;;;;;;;0.68;0.68;;;11.60;79.50;;;;;;4879275;29;20400;-72
2021/04/03 11:29:49;;;;;;;0.93;0.70;;;11.60;77.90;;;;;;4880332;29;20216;-72
2021/04/03 11:32:15;;;;;;;1.00;0.88;;;11.70;79.10;;;;;;4878539;29;20228;-71
2021/04/03 11:34:42;;;;;;;1.10;1.10;;;11.70;79.20;;;;;;4878873;29;20220;-72
2021/04/03 11:37:09;;;;;;;1.05;0.95;;;11.70;79.90;;;;;;4878154;29;20211;-73
2021/04/03 11:39:36;;;;;;;0.80;0.80;;;11.70;80.00;;;;;;4878964;29;20219;-73
2021/04/03 11:42:03;;;;;;;1.45;1.25;;;11.70;80.80;;;;;;4877986;29;20241;-69
2021/04/03 11:44:29;;;;;;;1.15;1.15;;;11.70;80.80;;;;;;4878970;29;20228;-72
2021/04/03 11:46:57;;;;;;;1.17;1.08;;;11.70;81.70;;;;;;4878512;29;20208;-72
2021/04/03 11:49:24;;;;;;;2.45;1.30;;;11.70;81.20;;;;;;4878818;29;20220;-73
2021/04/03 11:51:50;;;;;;;1.65;1.25;;;11.80;81.40;;;;;;4877851;29;20314;-72
2021/04/03 11:54:17;;;;;;;1.10;1.10;;;11.60;78.10;;;;;;4878543;29;20204;-71
2021/04/03 11:56:44;;;;;;;2.75;1.38;;;11.50;80.00;;;;;;4877584;29;20208;-70
2021/04/03 11:59:10;;;;;;;1.33;1.00;;;11.50;80.90;;;;;;4878160;29;20640;-70
2021/04/03 12:01:36;;;;;;;1.60;1.50;;;11.60;80.30;;;;;;4877726;29;20247;-71
2021/04/03 12:04:04;;;;;;;1.30;1.20;;;11.60;79.70;;;;;;4877816;29;20588;-72
2021/04/03 12:06:30;;;;;;;1.27;1.27;;;11.60;81.10;;;;;;4877831;29;20207;-72
2021/04/03 12:08:56;;;;;;;1.90;1.17;;;11.60;81.60;;;;;;4878205;29;20548;-72
2021/04/03 12:11:22;;;;;;;2.00;1.75;;;11.70;80.20;;;;;;4879803;29;20243;-71
2021/04/03 12:13:48;;;;;;;1.05;1.05;;;11.70;78.90;;;;;;4879631;29;20554;-71
2021/04/03 12:16:15;;;;;;;1.00;1.00;;;11.70;78.30;;;;;;4877963;29;20231;-72
2021/04/03 12:18:41;;;;;;;1.17;1.08;;;11.80;77.90;;;;;;4881787;29;20259;-72
2021/04/03 12:21:08;;;;;;;1.45;1.35;;;11.90;78.10;;;;;;4884434;29;20235;-71
2021/04/03 12:23:34;;;;;;;0.65;0.63;;;11.80;78.80;;;;;;4882058;29;20220;-72
2021/04/03 12:26:00;;;;;;;1.63;1.52;;;11.80;79.00;;;;;;4881934;29;20232;-73
2021/04/03 12:28:26;;;;;;;1.10;1.10;;;12.00;79.00;;;;;;4881284;29;20204;-72
2021/04/03 12:30:53;;;;;;;2.17;1.08;;;12.00;76.50;;;;;;4881955;29;20262;-73
2021/04/03 12:33:19;;;;;;;1.40;1.30;;;12.00;76.80;;;;;;4882512;29;20292;-73
2021/04/03 12:35:45;;;;;;;1.10;1.10;;;12.10;76.80;;;;;;4882309;29;20208;-73
2021/04/03 12:38:12;;;;;;;1.17;1.08;;;12.20;77.50;;;;;;4881515;29;20211;-73
2021/04/03 12:40:38;;;;;;;2.15;1.33;;;12.40;77.00;;;;;;4881850;29;20255;-72
2021/04/03 12:43:04;;;;;;;1.25;1.23;;;12.50;75.70;;;;;;4881317;29;20212;-72
2021/04/03 12:45:30;;;;;;;1.08;1.08;;;12.50;75.60;;;;;;4881270;29;20616;-73
2021/04/03 12:47:57;;;;;;;0.98;0.93;;;12.60;75.00;;;;;;4881692;29;20212;-72
2021/04/03 12:50:23;;;;;;;1.55;1.52;;;12.60;74.50;;;;;;4880877;29;20219;-72
2021/04/03 12:52:49;;;;;;;1.50;1.15;;;12.60;74.50;;;;;;4881183;29;20214;-73
2021/04/03 12:55:16;;;;;;;0.85;0.85;;;12.60;74.40;;;;;;4881289;29;20304;-70
2021/04/03 12:57:42;;;;;;;2.55;1.17;;;12.50;73.70;;;;;;4880448;29;20645;-71
2021/04/03 13:00:10;;;;;;;1.30;1.20;;;12.40;74.80;;;;;;4881891;29;20223;-70
2021/04/03 13:02:37;;;;;;;1.27;1.20;;;12.40;74.40;;;;;;4880941;29;20220;-70
2021/04/03 13:05:04;;;;;;;1.00;1.00;;;12.40;74.70;;;;;;4881362;29;20279;-71
2021/04/03 13:07:31;;;;;;;1.75;1.10;;;12.50;74.80;;;;;;4880887;29;20602;-70
2021/04/03 13:09:57;;;;;;;0.90;0.90;;;12.60;73.50;;;;;;4881317;29;20227;-71
2021/04/03 13:12:24;;;;;;;1.20;1.20;;;12.70;73.20;;;;;;4880296;29;20231;-71
2021/04/03 13:14:50;;;;;;;0.98;0.98;;;12.70;72.80;;;;;;4881137;29;20266;-70
2021/04/03 13:17:16;;;;;;;1.27;1.17;;;12.90;82.50;;;;;;4888712;29;20297;-70
2021/04/03 13:19:45;;;;;;;2.03;0.95;;;12.70;74.10;;;;;;4898648;29;20211;-72
2021/04/03 13:22:11;;;;;;;1.58;1.58;;;12.60;71.20;;;;;;4892480;29;20228;-70
2021/04/03 13:24:37;;;;;;;0.98;0.98;;;12.40;70.20;;;;;;4882349;29;20224;-70
2021/04/03 13:27:05;;;;;;;1.15;1.15;;;12.30;70.70;;;;;;4896079;29;20220;-70
2021/04/03 13:29:32;;;;;;;2.47;1.85;;;12.20;72.00;;;;;;4896188;29;20216;-72
2021/04/03 13:31:58;;;;;;;1.05;1.05;;;12.20;71.60;;;;;;4893561;29;20759;-71
2021/04/03 13:34:24;;;;;;;1.48;1.38;;;12.20;71.80;;;;;;4887863;29;20204;-72
2021/04/03 13:36:50;;;;;;;1.30;1.20;;;12.20;71.60;;;;;;4881574;29;20223;-72
2021/04/03 13:39:17;;;;;;;1.20;1.20;;;12.20;71.80;;;;;;4882810;29;20291;-72
2021/04/03 13:41:43;;;;;;;1.48;1.38;;;12.10;71.80;;;;;;4887088;29;20228;-71
2021/04/03 13:44:09;;;;;;;1.23;1.23;;;12.00;71.50;;;;;;4891516;29;20211;-72
2021/04/03 13:46:36;;;;;;;1.00;1.00;;;12.00;71.70;;;;;;4898349;29;20207;-72
2021/04/03 13:49:03;;;;;;;1.35;1.35;;;11.90;71.50;;;;;;4899644;29;20215;-72
2021/04/03 13:51:29;;;;;;;1.05;1.05;;;11.80;71.70;;;;;;4883660;29;20234;-72
2021/04/03 13:53:55;;;;;;;1.40;1.40;;;11.90;71.40;;;;;;4881676;29;20204;-72
2021/04/03 13:56:22;;;;;;;1.33;1.33;;;12.00;72.10;;;;;;4893674;29;20215;-72
2021/04/03 13:58:48;;;;;;;1.92;1.92;;;12.00;71.20;;;;;;4899017;29;20216;-72
2021/04/03 14:01:14;;;;;;;1.70;1.38;;;12.00;71.10;;;;;;4888914;29;20240;-72
2021/04/03 14:03:41;;;;;;;1.50;1.48;;;12.10;70.80;;;;;;4885268;29;20701;-72
2021/04/03 14:06:08;;;;;;;1.30;1.30;;;12.10;70.90;;;;;;4888146;29;20220;-71
2021/04/03 14:08:34;;;;;;;4.40;1.08;;;12.10;71.70;;;;;;4891921;29;20218;-71
2021/04/03 14:11:00;;;;;;;1.40;1.40;;;12.20;71.00;;;;;;4886400;29;20232;-72
2021/04/03 14:13:27;;;;;;;1.33;1.33;;;12.20;70.60;;;;;;4879994;29;20212;-72
2021/04/03 14:15:53;;;;;;;0.85;0.85;;;12.30;70.70;;;;;;4879719;29;20211;-72
2021/04/03 14:18:19;;;;;;;1.20;1.20;;;12.30;69.40;;;;;;4878858;29;20211;-72
2021/04/03 14:20:46;;;;;;;1.33;1.33;;;12.50;69.50;;;;;;4879247;29;20224;-72
2021/04/03 14:23:12;;;;;;;1.98;1.48;;;12.50;70.10;;;;;;4879689;29;20215;-72
2021/04/03 14:25:39;;;;;;;4.70;2.28;;;12.60;68.70;;;;;;4881849;29;20231;-71
2021/04/03 14:28:05;;;;;;;1.20;1.20;;;12.60;66.80;;;;;;4883047;29;20226;-71
2021/04/03 14:30:32;;;;;;;1.27;1.10;;;12.50;67.40;;;;;;4898448;29;20287;-71
2021/04/03 14:32:58;;;;;;;1.38;1.38;;;12.50;67.30;;;;;;4887551;29;20208;-70
2021/04/03 14:35:24;;;;;;;1.48;1.23;;;12.50;66.80;;;;;;4878998;29;20207;-71
2021/04/03 14:37:51;;;;;;;0.90;0.90;;;12.50;66.50;;;;;;4879626;29;20313;-70
2021/04/03 14:40:17;;;;;;;1.25;0.70;;;12.40;65.60;;;;;;4878579;29;20216;-70
2021/04/03 14:42:44;;;;;;;0.70;0.70;;;12.40;64.90;;;;;;4878712;29;20618;-70
2021/04/03 14:45:10;;;;;;;0.70;0.70;;;12.30;64.00;;;;;;4879806;29;20219;-69
2021/04/03 14:47:37;;;;;;;1.38;1.38;;;12.30;63.60;;;;;;4879362;29;20649;-70
2021/04/03 14:50:04;;;;;;;1.00;1.00;;;12.20;64.60;;;;;;4880085;29;20664;-69
2021/04/03 14:52:30;;;;;;;1.08;1.05;;;12.20;64.80;;;;;;4877189;29;20336;-70
2021/04/03 14:54:57;;;;;;;1.33;1.05;;;12.20;64.80;;;;;;4879060;29;20227;-71
2021/04/03 14:57:23;;;;;;;1.05;0.90;;;12.10;64.50;;;;;;4885493;29;20207;-70
2021/04/03 14:59:49;;;;;;;1.10;1.00;;;12.10;65.00;;;;;;4892252;29;20238;-71
2021/04/03 15:02:15;;;;;;;0.80;0.80;;;12.00;65.00;;;;;;4880479;29;20584;-71
2021/04/03 15:04:42;;;;;;;0.85;0.85;;;12.00;65.50;;;;;;4890082;29;20238;-71
2021/04/03 15:07:08;;;;;;;0.75;0.60;;;12.00;65.70;;;;;;4878366;29;20667;-70
2021/04/03 15:09:34;;;;;;;0.65;0.65;;;12.00;66.10;;;;;;4888565;29;20621;-71
2021/04/03 15:12:01;;;;;;;1.13;1.13;;;12.00;65.90;;;;;;4883152;29;20228;-70
2021/04/03 15:14:27;;;;;;;1.25;1.25;;;11.90;65.30;;;;;;4880266;29;20216;-71
2021/04/03 15:16:54;;;;;;;2.17;2.10;;;11.80;65.70;;;;;;4880414;29;20276;-71
2021/04/03 15:19:20;;;;;;;2.03;1.60;;;11.80;66.40;;;;;;4884818;29;20267;-70
2021/04/03 15:21:46;;;;;;;1.00;1.00;;;11.80;67.40;;;;;;4878364;29;20243;-70
2021/04/03 15:24:12;;;;;;;1.35;1.15;;;11.90;67.10;;;;;;4883455;29;20531;-70
2021/04/03 15:26:39;;;;;;;2.05;1.30;;;11.90;67.80;;;;;;4884376;29;20212;-69
2021/04/03 15:29:12;;;;;;;1.33;1.23;;;11.90;68.60;;;;;;4897321;29;20306;-70
2021/04/03 15:31:38;;;;;;;1.27;1.23;;;11.90;68.40;;;;;;4879126;29;20235;-70
2021/04/03 15:34:04;;;;;;;1.10;1.05;;;12.00;68.10;;;;;;4890230;29;20215;-70
2021/04/03 15:36:30;;;;;;;2.05;2.00;;;11.90;67.60;;;;;;4888518;29;20203;-69
2021/04/03 15:38:57;;;;;;;2.15;2.00;;;11.80;68.50;;;;;;4892018;29;20587;-69
2021/04/03 15:41:23;;;;;;;1.95;1.35;;;11.80;69.70;;;;;;4891998;29;20226;-70
2021/04/03 15:43:49;;;;;;;2.10;2.00;;;11.80;69.10;;;;;;4878180;29;20632;-70
2021/04/03 15:46:16;;;;;;;1.98;1.88;;;11.90;69.20;;;;;;4887011;29;20238;-70
2021/04/03 15:48:42;;;;;;;1.98;1.90;;;11.80;68.30;;;;;;4879452;29;20215;-70
2021/04/03 15:51:09;;;;;;;1.92;1.83;;;11.80;68.60;;;;;;4874383;29;20296;-68
2021/04/03 15:53:36;;;;;;;1.98;1.88;;;11.80;68.90;;;;;;4877118;29;20212;-70
2021/04/03 15:56:02;;;;;;;1.63;1.63;;;11.80;68.80;;;;;;4877496;29;20208;-70
2021/04/03 15:58:28;;;;;;;1.45;1.45;;;11.70;69.10;;;;;;4877533;29;20302;-70
2021/04/03 16:00:55;;;;;;;2.17;2.08;;;11.70;69.10;;;;;;4878008;29;20232;-70
2021/04/03 16:03:22;;;;;;;2.42;2.33;;;11.70;68.70;;;;;;4890592;29;20703;-70
2021/04/03 16:05:48;;;;;;;2.65;2.55;;;11.60;69.80;;;;;;4889510;29;20228;-69
2021/04/03 16:08:16;;;;;;;4.43;4.13;;;11.60;70.70;;;;;;4870696;29;20283;-71
2021/04/03 16:10:42;;;;;;;2.88;2.65;;;11.60;71.20;;;;;;4869595;29;20232;-70
2021/04/03 16:13:08;;;;;;;3.00;2.90;;;11.50;70.50;;;;;;4874255;29;20214;-70
2021/04/03 16:15:35;;;;;;;3.17;2.97;;;11.50;71.30;;;;;;4877944;29;20207;-70
2021/04/03 16:18:01;;;;;;;3.33;3.22;;;11.40;71.90;;;;;;4877703;29;20237;-69
2021/04/03 16:20:28;;;;;;;3.30;3.10;;;11.30;71.90;;;;;;4877904;29;20584;-69
2021/04/03 16:22:55;;;;;;;4.35;3.75;;;11.30;73.80;;;;;;4877445;29;20569;-70
2021/04/03 16:25:21;;;;;;;6.38;3.75;;;11.30;73.10;;;;;;4876964;29;20224;-70
2021/04/03 16:27:47;;;;;;;3.15;2.90;;;11.30;73.30;;;;;;4877432;29;20216;-71
2021/04/03 16:30:14;;;;;;;6.05;5.53;;;11.20;72.60;;;;;;4877319;29;20287;-71
2021/04/03 16:32:40;;;;;;;3.60;3.40;;;11.10;73.00;;;;;;4877592;29;20218;-70
2021/04/03 16:35:08;;;;;;;4.10;3.80;;;11.10;73.30;;;;;;4878332;29;20282;-70
2021/04/03 16:37:35;;;;;;;3.83;3.60;;;11.00;73.70;;;;;;4876830;29;20665;-69
2021/04/03 16:40:01;;;;;;;3.58;3.38;;;11.00;74.20;;;;;;4879525;29;20212;-71
2021/04/03 16:42:27;;;;;;;2.70;2.65;;;10.90;74.20;;;;;;4877261;29;20287;-68
2021/04/03 16:44:53;;;;;;;2.95;2.75;;;10.90;74.20;;;;;;4876493;29;20228;-71
2021/04/03 16:47:20;;;;;;;2.88;2.75;;;10.90;74.30;;;;;;4877548;29;20701;-71
2021/04/03 16:49:46;;;;;;;2.92;2.83;;;10.80;74.50;;;;;;4876946;29;20220;-70
2021/04/03 16:52:12;;;;;;;3.10;2.80;;;10.80;76.00;;;;;;4874513;29;20234;-70